createdAt,value
2019-02-06T00:00:56.618Z,21.83
2019-02-06T00:03:23.349Z,20.50
2019-02-06T00:05:50.219Z,21.40
2019-02-06T00:08:17.067Z,23.47
2019-02-06T00:10:43.784Z,21.30
2019-02-06T00:13:10.507Z,22.13
2019-02-06T00:15:37.366Z,20.77
2019-02-06T00:18:04.539Z,19.97
2019-02-06T00:20:32.107Z,22.63
2019-02-06T00:22:59.267Z,19.03
2019-02-06T00:25:26.101Z,20.77
2019-02-06T00:27:52.830Z,19.70
2019-02-06T00:32:54.264Z,18.23
2019-02-06T00:35:25.750Z,22.43
2019-02-06T00:37:50.041Z,20.57
2019-02-06T00:40:16.710Z,19.83
2019-02-06T00:42:43.465Z,22.50
2019-02-06T00:45:10.286Z,20.63
2019-02-06T00:47:37.128Z,22.60
2019-02-06T00:50:04.889Z,24.00
2019-02-06T00:52:32.308Z,23.10
2019-02-06T00:54:59.176Z,22.17
2019-02-06T00:57:25.903Z,20.37
2019-02-06T00:59:52.749Z,19.93
2019-02-06T01:02:19.458Z,20.70
2019-02-06T01:04:46.467Z,23.43
2019-02-06T01:07:13.666Z,23.90
2019-02-06T01:09:40.446Z,20.13
2019-02-06T01:12:09.167Z,22.23
2019-02-06T01:14:36.184Z,20.27
2019-02-06T01:17:03.066Z,19.33
2019-02-06T01:19:42.895Z,20.40
2019-02-06T01:22:09.733Z,21.13
2019-02-06T01:24:36.561Z,20.83
2019-02-06T01:27:03.572Z,20.73
2019-02-06T01:29:30.715Z,21.07
2019-02-06T01:31:57.438Z,20.30
2019-02-06T01:34:24.560Z,22.77
2019-02-06T01:36:51.409Z,21.10
2019-02-06T01:39:18.402Z,20.37
2019-02-06T01:41:45.115Z,23.10
2019-02-06T01:44:12.018Z,22.20
2019-02-06T01:46:39.118Z,20.57
2019-02-06T01:49:06.418Z,21.67
2019-02-06T01:51:33.107Z,21.07
2019-02-06T01:54:00.201Z,21.90
2019-02-06T01:56:27.186Z,24.80
2019-02-06T01:58:54.028Z,21.37
2019-02-06T02:01:20.871Z,25.57
2019-02-06T02:03:47.739Z,22.77
2019-02-06T02:06:14.527Z,24.03
2019-02-06T02:11:33.969Z,21.60
2019-02-06T02:14:00.797Z,23.30
2019-02-06T02:16:27.711Z,23.63
2019-02-06T02:18:54.790Z,26.83
2019-02-06T02:21:21.872Z,23.70
2019-02-06T02:23:48.591Z,21.47
2019-02-06T02:26:15.295Z,21.53
2019-02-06T02:28:42.005Z,23.37
2019-02-06T02:33:56.892Z,22.43
2019-02-06T02:36:23.623Z,25.03
2019-02-06T02:38:50.439Z,23.87
2019-02-06T02:41:17.242Z,22.47
2019-02-06T02:43:44.001Z,26.00
2019-02-06T02:46:10.619Z,24.53
2019-02-06T02:48:37.376Z,28.60
2019-02-06T02:51:04.101Z,27.53
2019-02-06T02:53:32.746Z,23.83
2019-02-06T02:55:59.590Z,26.70
2019-02-06T02:58:26.317Z,24.33
2019-02-06T03:01:12.837Z,26.20
2019-02-06T03:03:59.249Z,26.57
2019-02-06T03:06:28.552Z,30.00
2019-02-06T03:08:55.010Z,27.07
2019-02-06T03:11:21.838Z,25.17
2019-02-06T03:13:48.726Z,25.73
2019-02-06T03:16:15.560Z,26.30
2019-02-06T03:18:42.470Z,26.07
2019-02-06T03:21:09.379Z,28.63
2019-02-06T03:23:36.535Z,29.30
2019-02-06T03:26:03.355Z,28.97
2019-02-06T03:28:30.205Z,25.13
2019-02-06T03:30:56.936Z,25.77
2019-02-06T03:33:23.916Z,28.73
2019-02-06T03:35:50.856Z,30.70
2019-02-06T03:38:17.990Z,30.30
2019-02-06T03:40:44.810Z,31.77
2019-02-06T03:43:11.594Z,31.17
2019-02-06T03:45:38.419Z,32.47
2019-02-06T03:48:05.576Z,34.00
2019-02-06T03:50:32.512Z,31.83
2019-02-06T03:52:59.656Z,34.73
2019-02-06T03:55:26.430Z,31.53
2019-02-06T03:57:53.608Z,35.50
2019-02-06T04:00:20.759Z,36.30
2019-02-06T04:02:47.696Z,42.43
2019-02-06T04:05:14.610Z,40.13
2019-02-06T04:07:41.478Z,42.67
2019-02-06T04:10:09.714Z,46.13
2019-02-06T04:12:36.667Z,43.77
2019-02-06T04:15:44.543Z,48.13
2019-02-06T04:18:11.598Z,44.37
2019-02-06T04:20:38.322Z,47.17
2019-02-06T04:23:05.051Z,45.90
2019-02-06T04:25:32.540Z,44.17
2019-02-06T04:27:59.367Z,51.53
2019-02-06T04:30:26.099Z,47.67
2019-02-06T04:32:52.852Z,47.13
2019-02-06T04:35:19.563Z,45.80
2019-02-06T04:37:46.381Z,45.60
2019-02-06T04:40:15.752Z,46.70
2019-02-06T04:42:42.471Z,44.73
2019-02-06T04:45:09.563Z,49.87
2019-02-06T04:47:36.770Z,45.47
2019-02-06T04:50:04.946Z,48.07
2019-02-06T04:52:31.677Z,45.97
2019-02-06T04:54:58.453Z,44.90
2019-02-06T04:57:25.167Z,46.87
2019-02-06T04:59:52.019Z,54.53
2019-02-06T05:02:19.175Z,46.73
2019-02-06T05:04:45.888Z,51.00
2019-02-06T05:07:19.332Z,50.50
2019-02-06T05:09:41.677Z,55.80
2019-02-06T05:12:09.660Z,53.90
2019-02-06T05:14:37.093Z,54.80
2019-02-06T05:17:03.998Z,53.50
2019-02-06T05:19:30.825Z,52.43
2019-02-06T05:21:59.445Z,46.20
2019-02-06T05:24:26.323Z,46.33
2019-02-06T05:26:53.107Z,46.07
2019-02-06T05:29:20.108Z,48.17
2019-02-06T05:31:46.955Z,55.27
2019-02-06T05:34:14.500Z,53.10
2019-02-06T05:36:41.132Z,51.83
2019-02-06T05:39:08.045Z,55.90
2019-02-06T05:41:35.375Z,56.20
2019-02-06T05:44:02.096Z,55.10
2019-02-06T05:46:28.942Z,59.93
2019-02-06T05:48:55.568Z,57.47
2019-02-06T05:51:22.679Z,60.80
2019-02-06T05:53:49.431Z,57.93
2019-02-06T05:56:16.754Z,55.23
2019-02-06T05:58:43.747Z,63.13
2019-02-06T06:01:11.244Z,63.60
2019-02-06T06:03:37.972Z,60.97
2019-02-06T06:06:04.788Z,58.43
2019-02-06T06:08:31.787Z,54.50
2019-02-06T06:10:58.521Z,55.80
2019-02-06T06:13:25.352Z,52.87
2019-02-06T06:15:52.122Z,54.77
2019-02-06T06:18:21.931Z,60.50
2019-02-06T06:20:48.126Z,56.23
2019-02-06T06:23:15.091Z,56.30
2019-02-06T06:25:41.977Z,57.60
2019-02-06T06:28:08.766Z,56.53
2019-02-06T06:30:35.822Z,58.30
2019-02-06T06:33:02.940Z,57.80
2019-02-06T06:35:29.766Z,53.97
2019-02-06T06:38:02.425Z,57.97
2019-02-06T06:40:25.584Z,63.50
2019-02-06T06:42:52.413Z,65.47
2019-02-06T06:45:20.880Z,60.37
2019-02-06T06:47:47.739Z,63.07
2019-02-06T06:50:16.797Z,65.53
2019-02-06T06:52:43.880Z,69.07
2019-02-06T06:55:11.296Z,64.47
2019-02-06T06:57:38.718Z,67.63
2019-02-06T07:00:08.726Z,65.70
2019-02-06T07:02:36.015Z,63.03
2019-02-06T07:05:05.557Z,66.23
2019-02-06T07:07:32.234Z,62.20
2019-02-06T07:09:58.949Z,60.80
2019-02-06T07:12:25.709Z,63.63
2019-02-06T07:14:53.360Z,66.93
2019-02-06T07:17:20.419Z,63.70
2019-02-06T07:19:47.053Z,70.90
2019-02-06T07:22:14.232Z,67.57
2019-02-06T07:24:41.624Z,65.40
2019-02-06T07:27:08.509Z,66.13
2019-02-06T07:29:47.915Z,65.10
2019-02-06T07:32:14.888Z,67.23
2019-02-06T07:34:41.750Z,67.27
2019-02-06T07:37:08.710Z,63.37
2019-02-06T07:39:35.433Z,56.47
2019-02-06T07:42:02.203Z,58.60
2019-02-06T07:44:29.328Z,56.53
2019-02-06T07:46:56.213Z,56.03
2019-02-06T07:49:22.941Z,59.13
2019-02-06T07:51:50.928Z,54.50
2019-02-06T07:54:18.352Z,53.77
2019-02-06T07:56:45.306Z,51.97
2019-02-06T07:59:12.188Z,52.63
2019-02-06T08:01:39.347Z,52.77
2019-02-06T08:04:06.216Z,53.17
2019-02-06T08:06:33.007Z,52.50
2019-02-06T08:09:00.157Z,52.90
2019-02-06T08:11:27.153Z,55.47
2019-02-06T08:13:54.091Z,58.47
2019-02-06T08:16:20.813Z,49.60
2019-02-06T08:18:48.025Z,50.97
2019-02-06T08:21:14.922Z,51.73
2019-02-06T08:23:41.828Z,46.97
2019-02-06T08:26:08.653Z,45.77
2019-02-06T08:28:38.385Z,45.70
2019-02-06T08:31:05.630Z,47.90
2019-02-06T08:33:32.523Z,46.20
2019-02-06T08:35:59.545Z,48.40
2019-02-06T08:38:26.433Z,45.17
2019-02-06T08:40:53.876Z,44.67
2019-02-06T08:43:20.878Z,45.97
2019-02-06T08:45:47.852Z,42.77
2019-02-06T08:48:14.738Z,49.20
2019-02-06T08:50:41.674Z,50.90
2019-02-06T08:53:08.563Z,44.80
2019-02-06T08:55:35.336Z,47.53
2019-02-06T08:58:02.354Z,45.30
2019-02-06T09:00:31.291Z,44.60
2019-02-06T09:02:58.270Z,40.83
2019-02-06T09:05:27.162Z,42.00
2019-02-06T09:07:54.019Z,43.40
2019-02-06T09:10:21.892Z,42.57
2019-02-06T09:13:29.780Z,41.77
2019-02-06T09:15:56.817Z,40.10
2019-02-06T09:18:24.024Z,40.67
2019-02-06T09:20:52.820Z,38.87
2019-02-06T09:23:20.215Z,39.13
2019-02-06T09:25:47.503Z,35.23
2019-02-06T09:28:14.450Z,38.37
2019-02-06T09:30:41.190Z,38.20
2019-02-06T09:33:07.977Z,34.87
2019-02-06T09:35:34.991Z,38.30
2019-02-06T09:38:01.836Z,39.47
2019-02-06T09:40:29.481Z,37.90
2019-02-06T09:42:56.431Z,36.63
2019-02-06T09:46:04.484Z,36.00
2019-02-06T09:48:31.424Z,35.43
2019-02-06T09:50:58.531Z,35.10
2019-02-06T09:53:25.314Z,32.93
2019-02-06T09:55:53.361Z,33.67
2019-02-06T09:58:20.804Z,34.77
2019-02-06T10:00:47.625Z,32.23
2019-02-06T10:03:14.513Z,31.97
2019-02-06T10:05:41.521Z,29.20
2019-02-06T10:08:08.252Z,30.63
2019-02-06T10:10:35.067Z,29.03
2019-02-06T10:13:01.808Z,26.03
2019-02-06T10:15:33.481Z,28.33
2019-02-06T10:18:02.369Z,27.20
2019-02-06T10:20:34.562Z,27.43
2019-02-06T10:23:01.400Z,28.90
2019-02-06T10:25:28.478Z,28.20
2019-02-06T10:27:55.603Z,29.47
2019-02-06T10:30:27.863Z,27.67
2019-02-06T10:32:55.146Z,27.53
2019-02-06T10:35:22.052Z,26.57
2019-02-06T10:40:43.965Z,28.80
2019-02-06T10:43:10.703Z,25.13
2019-02-06T10:45:38.279Z,25.60
2019-02-06T10:48:05.243Z,24.57
2019-02-06T10:50:34.538Z,24.90
2019-02-06T10:53:01.564Z,24.07
2019-02-06T10:55:28.798Z,24.83
2019-02-06T10:57:55.655Z,24.57
2019-02-06T11:01:05.162Z,23.57
2019-02-06T11:03:31.985Z,24.80
2019-02-06T11:05:58.823Z,21.67
2019-02-06T11:08:25.617Z,21.33
2019-02-06T11:10:52.966Z,20.70
2019-02-06T11:13:19.708Z,19.57
2019-02-06T11:15:46.951Z,17.67
2019-02-06T11:18:13.771Z,20.83
2019-02-06T11:21:22.177Z,19.27
2019-02-06T11:23:48.891Z,19.37
2019-02-06T11:26:15.641Z,18.70
2019-02-06T11:28:42.435Z,16.23
2019-02-06T11:31:09.586Z,17.20
2019-02-06T11:33:36.336Z,16.63
2019-02-06T11:36:03.391Z,16.27
2019-02-06T11:38:32.033Z,19.97
2019-02-06T11:40:58.772Z,15.50
2019-02-06T11:43:25.906Z,15.63
2019-02-06T11:45:52.761Z,15.17
2019-02-06T11:48:19.503Z,18.13
2019-02-06T11:50:46.410Z,16.13
2019-02-06T11:53:32.760Z,14.73
2019-02-06T11:55:59.652Z,17.60
2019-02-06T11:58:26.500Z,14.87
2019-02-06T12:01:13.053Z,15.30
2019-02-06T12:03:39.963Z,14.93
2019-02-06T12:06:08.715Z,15.70
2019-02-06T12:08:35.583Z,13.77
2019-02-06T12:11:23.879Z,15.33
2019-02-06T12:13:53.523Z,13.77
2019-02-06T12:16:20.293Z,14.20
2019-02-06T12:18:48.993Z,18.17
2019-02-06T12:21:17.884Z,16.87
2019-02-06T12:23:44.498Z,13.73
2019-02-06T12:26:11.357Z,14.30
2019-02-06T12:28:38.339Z,13.23
2019-02-06T12:31:05.267Z,14.07
2019-02-06T12:33:32.054Z,15.07
2019-02-06T12:35:58.976Z,14.13
2019-02-06T12:38:28.051Z,13.07
2019-02-06T12:40:54.988Z,13.90
2019-02-06T12:43:21.803Z,13.27
2019-02-06T12:45:48.670Z,14.50
2019-02-06T12:48:15.413Z,13.13
2019-02-06T12:50:42.384Z,13.10
2019-02-06T12:53:09.236Z,12.20
2019-02-06T12:55:36.900Z,13.97
2019-02-06T12:58:45.113Z,11.73
2019-02-06T13:01:11.840Z,11.93
2019-02-06T13:03:38.715Z,10.83
2019-02-06T13:06:05.794Z,11.23
2019-02-06T13:08:32.827Z,10.53
2019-02-06T13:10:59.765Z,12.73
2019-02-06T13:13:26.845Z,11.50
2019-02-06T13:15:53.684Z,11.63
2019-02-06T13:18:20.551Z,11.97
2019-02-06T13:20:47.550Z,13.13
2019-02-06T13:23:14.490Z,12.97
2019-02-06T13:25:41.362Z,12.73
2019-02-06T13:28:08.436Z,14.00
2019-02-06T13:30:35.523Z,13.43
2019-02-06T13:33:02.354Z,15.97
2019-02-06T13:35:29.593Z,13.83
2019-02-06T13:37:56.732Z,15.27
2019-02-06T13:40:24.938Z,13.40
2019-02-06T13:42:51.795Z,15.33
2019-02-06T13:45:21.036Z,15.33
2019-02-06T13:47:48.067Z,16.57
2019-02-06T13:50:22.182Z,16.60
2019-02-06T13:52:43.886Z,15.80
2019-02-06T13:55:11.005Z,15.90
2019-02-06T13:57:38.031Z,16.83
2019-02-06T14:00:29.583Z,14.87
2019-02-06T14:02:57.122Z,15.73
2019-02-06T14:05:25.763Z,17.23
2019-02-06T14:07:55.246Z,17.27
2019-02-06T14:12:57.366Z,15.10
2019-02-06T14:16:05.772Z,16.20
2019-02-06T14:18:45.368Z,16.67
2019-02-06T14:21:12.152Z,15.17
2019-02-06T14:24:18.160Z,15.90
2019-02-06T14:27:09.521Z,15.37
2019-02-06T14:30:06.643Z,17.10
2019-02-06T14:32:56.705Z,17.07
2019-02-06T14:35:29.520Z,18.33
2019-02-06T14:38:24.656Z,15.63
2019-02-06T14:41:30.666Z,16.03
2019-02-06T14:44:36.952Z,17.17
2019-02-06T14:47:43.247Z,16.00
2019-02-06T14:50:49.595Z,13.60
2019-02-06T14:53:55.678Z,14.93
2019-02-06T14:56:31.087Z,14.63
2019-02-06T14:59:26.105Z,14.97
2019-02-06T15:02:31.994Z,14.13
2019-02-06T15:05:23.299Z,13.83
2019-02-06T15:08:29.356Z,13.73
2019-02-06T15:11:22.344Z,14.93
2019-02-06T15:14:27.841Z,14.20
2019-02-06T15:17:21.737Z,13.20
2019-02-06T15:20:27.678Z,14.43
2019-02-06T15:23:17.494Z,16.23
2019-02-06T15:26:23.370Z,15.77
2019-02-06T15:29:29.364Z,17.13
2019-02-06T15:32:35.221Z,15.60
2019-02-06T15:35:41.210Z,15.87
2019-02-06T15:38:19.921Z,14.90
2019-02-06T15:41:31.093Z,16.17
2019-02-06T15:44:34.447Z,16.13
2019-02-06T15:47:42.335Z,15.07
2019-02-06T15:50:41.887Z,17.07
2019-02-06T15:53:48.461Z,15.63
2019-02-06T15:56:55.729Z,17.40
2019-02-06T16:00:01.749Z,17.97
2019-02-06T16:02:51.907Z,18.10
2019-02-06T16:06:18.036Z,18.47
2019-02-06T16:09:24.634Z,18.50
2019-02-06T16:12:30.652Z,18.80
2019-02-06T16:15:21.077Z,16.00
2019-02-06T16:18:12.672Z,17.77
2019-02-06T16:20:52.409Z,18.27
2019-02-06T16:23:51.236Z,19.40
2019-02-06T16:26:37.688Z,19.17
2019-02-06T16:29:43.725Z,17.83
2019-02-06T16:32:33.559Z,18.43
2019-02-06T16:35:39.887Z,18.47
2019-02-06T16:38:45.764Z,20.30
2019-02-06T16:41:38.691Z,19.50
2019-02-06T16:44:44.565Z,17.40
2019-02-06T16:47:45.037Z,19.83
2019-02-06T16:50:45.813Z,18.57
2019-02-06T16:53:36.056Z,23.77
2019-02-06T16:56:41.937Z,19.13
2019-02-06T16:59:36.366Z,20.87
2019-02-06T17:02:42.381Z,21.07
2019-02-06T17:05:48.653Z,21.63
2019-02-06T17:08:43.382Z,20.53
2019-02-06T17:11:49.387Z,18.27
2019-02-06T17:14:55.266Z,20.23
2019-02-06T17:17:29.519Z,21.50
2019-02-06T17:20:20.526Z,19.13
2019-02-06T17:23:26.817Z,21.17
2019-02-06T17:26:32.702Z,19.33
2019-02-06T17:29:38.674Z,19.87
2019-02-06T17:32:44.551Z,19.53
2019-02-06T17:35:38.004Z,18.20
2019-02-06T17:38:37.660Z,17.90
2019-02-06T17:41:26.761Z,21.80
2019-02-06T17:44:32.888Z,20.27
2019-02-06T17:47:24.024Z,20.57
2019-02-06T17:50:30.273Z,19.03
2019-02-06T17:53:29.194Z,19.67
2019-02-06T17:55:56.549Z,19.50
2019-02-06T17:58:24.081Z,18.60
2019-02-06T18:01:30.518Z,19.87
2019-02-06T18:04:19.061Z,18.97
2019-02-06T18:07:27.108Z,20.93
2019-02-06T18:09:53.990Z,18.37
2019-02-06T18:12:26.260Z,17.07
2019-02-06T18:14:49.626Z,19.53
2019-02-06T18:17:16.917Z,15.60
2019-02-06T18:19:43.671Z,19.10
2019-02-06T18:22:10.593Z,19.27
2019-02-06T18:24:37.520Z,18.60
2019-02-06T18:27:04.872Z,19.43
2019-02-06T18:29:31.787Z,16.97
2019-02-06T18:32:00.241Z,17.40
2019-02-06T18:34:27.090Z,19.47
2019-02-06T18:36:56.314Z,17.40
2019-02-06T18:39:23.439Z,18.43
2019-02-06T18:41:50.509Z,17.40
2019-02-06T18:44:17.686Z,18.27
2019-02-06T18:46:46.444Z,18.50
2019-02-06T18:49:13.186Z,17.17
2019-02-06T18:51:41.151Z,16.73
2019-02-06T18:54:29.717Z,21.03
2019-02-06T18:56:56.541Z,19.00
2019-02-06T18:59:23.330Z,17.07
2019-02-06T19:01:50.103Z,19.90
2019-02-06T19:04:19.126Z,19.97
2019-02-06T19:06:46.782Z,18.83
2019-02-06T19:09:14.837Z,17.70
2019-02-06T19:11:41.750Z,18.97
2019-02-06T19:14:08.659Z,20.63
2019-02-06T19:16:37.343Z,20.70
2019-02-06T19:19:04.771Z,18.90
2019-02-06T19:21:31.531Z,19.40
2019-02-06T19:23:58.891Z,19.97
2019-02-06T19:26:26.262Z,19.30
2019-02-06T19:28:53.600Z,21.47
2019-02-06T19:31:20.477Z,19.80
2019-02-06T19:33:47.636Z,21.17
2019-02-06T19:36:14.844Z,20.43
2019-02-06T19:38:41.894Z,23.70
2019-02-06T19:41:09.108Z,18.80
2019-02-06T19:43:37.077Z,20.43
2019-02-06T19:46:03.984Z,20.57
2019-02-06T19:48:55.888Z,18.83
2019-02-06T19:51:23.046Z,18.93
2019-02-06T19:53:50.170Z,19.47
2019-02-06T19:56:17.244Z,20.00
2019-02-06T19:58:44.058Z,17.97
2019-02-06T20:01:10.902Z,19.93
2019-02-06T20:03:37.897Z,21.77
2019-02-06T20:06:05.740Z,19.33
2019-02-06T20:08:33.894Z,21.20
2019-02-06T20:11:00.881Z,19.00
2019-02-06T20:13:28.468Z,21.63
2019-02-06T20:15:55.766Z,21.97
2019-02-06T20:18:22.707Z,22.73
2019-02-06T20:20:49.453Z,20.73
2019-02-06T20:23:16.551Z,20.20
2019-02-06T20:25:43.700Z,21.47
2019-02-06T20:28:10.592Z,23.93
2019-02-06T20:30:59.122Z,19.30
2019-02-06T20:33:25.940Z,20.47
2019-02-06T20:35:52.672Z,21.43
2019-02-06T20:38:19.623Z,22.37
2019-02-06T20:40:46.511Z,21.40
2019-02-06T20:43:21.775Z,18.53
2019-02-06T20:45:42.112Z,23.63
2019-02-06T20:51:00.381Z,21.20
2019-02-06T20:53:27.420Z,23.23
2019-02-06T20:55:54.178Z,19.90
2019-02-06T20:58:21.147Z,23.57
2019-02-06T21:00:48.553Z,24.53
2019-02-06T21:03:15.400Z,19.90
2019-02-06T21:05:44.531Z,24.00
2019-02-06T21:08:12.184Z,20.43
2019-02-06T21:10:39.396Z,21.33
2019-02-06T21:13:06.228Z,24.20
2019-02-06T21:15:33.165Z,26.57
2019-02-06T21:18:00.048Z,26.30
2019-02-06T21:20:27.328Z,29.50
2019-02-06T21:22:54.253Z,26.50
2019-02-06T21:25:21.172Z,28.23
2019-02-06T21:27:49.196Z,28.00
2019-02-06T21:30:35.765Z,24.77
2019-02-06T21:33:02.742Z,23.93
2019-02-06T21:35:30.041Z,23.73
2019-02-06T21:37:57.212Z,23.43
2019-02-06T21:40:25.982Z,22.23
2019-02-06T21:42:52.972Z,24.07
2019-02-06T21:45:19.827Z,21.93
2019-02-06T21:47:47.136Z,21.33
2019-02-06T21:50:21.546Z,24.10
2019-02-06T21:52:48.407Z,18.93
2019-02-06T21:55:16.081Z,19.17
2019-02-06T22:00:37.150Z,22.53
2019-02-06T22:03:25.547Z,20.73
2019-02-06T22:05:52.428Z,22.83
2019-02-06T22:08:19.656Z,20.33
2019-02-06T22:10:47.691Z,20.73
2019-02-06T22:13:14.610Z,18.73
2019-02-06T22:15:41.555Z,20.80
2019-02-06T22:18:08.948Z,19.80
2019-02-06T22:20:35.808Z,18.80
2019-02-06T22:23:03.036Z,19.03
2019-02-06T22:25:30.684Z,20.50
2019-02-06T22:27:57.496Z,21.37
2019-02-06T22:30:25.950Z,21.03
2019-02-06T22:32:52.806Z,20.20
2019-02-06T22:35:21.896Z,18.67
2019-02-06T22:37:48.739Z,20.40
2019-02-06T22:40:17.263Z,19.83
2019-02-06T22:42:44.184Z,17.40
2019-02-06T22:45:14.084Z,18.47
2019-02-06T22:47:40.939Z,21.63
2019-02-06T22:50:09.629Z,20.20
2019-02-06T22:52:39.024Z,20.50
2019-02-06T22:55:06.973Z,21.27
2019-02-06T22:57:33.845Z,22.50
2019-02-06T23:00:00.895Z,17.60
2019-02-06T23:02:27.761Z,19.57
2019-02-06T23:04:54.638Z,17.03
2019-02-06T23:07:21.649Z,19.80
2019-02-06T23:09:50.297Z,18.90
2019-02-06T23:12:17.292Z,20.23
2019-02-06T23:14:44.228Z,18.20
2019-02-06T23:17:11.097Z,17.77
2019-02-06T23:19:38.330Z,17.57
2019-02-06T23:22:05.073Z,16.23
2019-02-06T23:24:31.810Z,20.00
2019-02-06T23:26:58.984Z,18.93
2019-02-06T23:29:25.901Z,17.60
2019-02-06T23:31:52.987Z,18.83
2019-02-06T23:34:19.797Z,20.67
2019-02-06T23:36:46.591Z,20.20
2019-02-06T23:39:33.082Z,18.67
2019-02-06T23:41:59.945Z,16.30
2019-02-06T23:44:28.881Z,20.20
2019-02-06T23:46:56.259Z,16.70
2019-02-06T23:49:24.368Z,16.40
2019-02-06T23:51:51.237Z,16.10
2019-02-06T23:54:18.210Z,17.47
2019-02-06T23:56:45.415Z,18.27
2019-02-06T23:59:13.058Z,18.53
